createdAt,value
2019-02-25T00:02:26.735Z,54.55
2019-02-25T00:04:55.274Z,53.10
2019-02-25T00:07:23.747Z,54.09
2019-02-25T00:09:51.995Z,54.67
2019-02-25T00:12:20.226Z,53.55
2019-02-25T00:14:48.702Z,53.55
2019-02-25T00:17:16.939Z,55.73
2019-02-25T00:19:45.419Z,53.60
2019-02-25T00:22:13.654Z,54.73
2019-02-25T00:24:42.135Z,55.18
2019-02-25T00:27:10.597Z,55.18
2019-02-25T00:29:38.845Z,54.43
2019-02-25T00:32:07.089Z,54.90
2019-02-25T00:34:35.335Z,56.49
2019-02-25T00:37:03.562Z,56.49
2019-02-25T00:39:31.806Z,56.46
2019-02-25T00:42:00.047Z,56.21
2019-02-25T00:44:28.592Z,56.21
2019-02-25T00:46:56.826Z,55.52
2019-02-25T00:49:25.059Z,55.52
2019-02-25T00:51:53.311Z,55.28
2019-02-25T00:54:21.545Z,55.70
2019-02-25T00:56:49.796Z,55.70
2019-02-25T00:59:18.030Z,57.15
2019-02-25T01:01:46.275Z,57.50
2019-02-25T01:04:14.739Z,57.50
2019-02-25T01:06:42.982Z,57.59
2019-02-25T01:09:11.286Z,57.44
2019-02-25T01:11:39.755Z,57.15
2019-02-25T01:14:07.987Z,57.15
2019-02-25T01:16:36.232Z,56.08
2019-02-25T01:19:04.466Z,56.21
2019-02-25T01:21:32.715Z,58.14
2019-02-25T01:24:00.948Z,57.79
2019-02-25T01:26:29.184Z,56.30
2019-02-25T01:28:57.668Z,57.20
2019-02-25T01:31:25.907Z,57.78
2019-02-25T01:33:54.135Z,57.78
2019-02-25T01:36:22.379Z,57.67
2019-02-25T01:38:50.617Z,57.67
2019-02-25T01:41:18.856Z,56.79
2019-02-25T01:43:47.087Z,56.34
2019-02-25T01:46:15.591Z,55.74
2019-02-25T01:48:44.058Z,55.74
2019-02-25T01:51:12.302Z,56.22
2019-02-25T01:53:40.529Z,55.49
2019-02-25T01:56:09.179Z,55.49
2019-02-25T01:58:37.632Z,55.39
2019-02-25T02:01:05.864Z,55.86
2019-02-25T02:03:34.099Z,55.60
2019-02-25T02:06:02.332Z,55.42
2019-02-25T02:08:30.804Z,54.79
2019-02-25T02:10:59.282Z,54.79
2019-02-25T02:13:27.506Z,54.66
2019-02-25T02:15:55.741Z,55.91
2019-02-25T02:18:24.207Z,56.19
2019-02-25T02:20:52.664Z,55.44
2019-02-25T02:23:20.904Z,55.85
2019-02-25T02:25:49.368Z,56.43
2019-02-25T02:28:17.620Z,57.01
2019-02-25T02:30:45.857Z,57.09
2019-02-25T02:33:14.111Z,56.35
2019-02-25T02:35:42.339Z,57.53
2019-02-25T02:38:10.582Z,57.82
2019-02-25T02:40:38.815Z,57.79
2019-02-25T02:43:07.047Z,57.79
2019-02-25T02:45:41.248Z,56.81
2019-02-25T02:48:30.762Z,57.72
2019-02-25T02:50:58.987Z,57.43
2019-02-25T02:53:27.274Z,56.62
2019-02-25T02:55:55.495Z,56.29
2019-02-25T02:58:23.972Z,56.23
2019-02-25T03:00:52.203Z,56.51
2019-02-25T03:03:20.447Z,56.82
2019-02-25T03:05:48.677Z,57.84
2019-02-25T03:08:17.152Z,56.65
2019-02-25T03:10:45.387Z,56.53
2019-02-25T03:13:13.616Z,56.53
2019-02-25T03:15:41.863Z,57.60
2019-02-25T03:18:10.102Z,58.43
2019-02-25T03:20:38.345Z,57.01
2019-02-25T03:23:06.826Z,57.01
2019-02-25T03:25:35.304Z,57.08
2019-02-25T03:28:03.547Z,57.08
2019-02-25T03:30:32.037Z,58.28
2019-02-25T03:33:00.278Z,57.10
2019-02-25T03:35:28.512Z,57.10
2019-02-25T03:37:56.744Z,57.32
2019-02-25T03:40:24.998Z,57.68
2019-02-25T03:42:53.473Z,57.61
2019-02-25T03:45:21.813Z,57.97
2019-02-25T03:47:50.041Z,57.96
2019-02-25T03:50:18.508Z,58.51
2019-02-25T03:52:46.744Z,58.17
2019-02-25T03:55:19.330Z,58.11
2019-02-25T03:57:47.691Z,57.41
2019-02-25T04:00:25.548Z,56.39
2019-02-25T04:02:54.073Z,56.39
2019-02-25T04:05:22.311Z,56.58
2019-02-25T04:07:50.572Z,57.22
2019-02-25T04:10:19.647Z,57.49
2019-02-25T04:12:48.106Z,58.47
2019-02-25T04:15:19.211Z,57.55
2019-02-25T04:17:47.444Z,57.55
2019-02-25T04:20:16.821Z,56.95
2019-02-25T04:22:45.294Z,56.97
2019-02-25T04:25:13.541Z,57.31
2019-02-25T04:27:41.765Z,58.13
2019-02-25T04:30:15.121Z,59.11
2019-02-25T04:32:43.391Z,57.67
2019-02-25T04:35:12.636Z,58.08
2019-02-25T04:37:41.111Z,57.98
2019-02-25T04:40:12.340Z,58.90
2019-02-25T04:42:40.586Z,58.67
2019-02-25T04:45:11.590Z,58.16
2019-02-25T04:47:39.823Z,58.09
2019-02-25T04:50:09.691Z,58.56
2019-02-25T04:52:37.941Z,57.99
2019-02-25T04:55:07.817Z,59.19
2019-02-25T04:57:36.056Z,59.28
2019-02-25T05:00:09.820Z,57.54
2019-02-25T05:02:38.061Z,57.30
2019-02-25T05:05:07.060Z,56.94
2019-02-25T05:07:35.305Z,57.05
2019-02-25T05:10:04.898Z,57.40
2019-02-25T05:12:33.151Z,57.73
2019-02-25T05:15:01.382Z,57.65
2019-02-25T05:17:29.615Z,57.75
2019-02-25T05:19:57.860Z,57.99
2019-02-25T05:22:26.092Z,59.65
2019-02-25T05:24:54.565Z,59.42
2019-02-25T05:27:22.793Z,58.19
2019-02-25T05:29:51.040Z,59.97
2019-02-25T05:32:19.280Z,58.68
2019-02-25T05:34:47.531Z,58.94
2019-02-25T05:37:15.988Z,59.68
2019-02-25T05:39:44.244Z,58.57
2019-02-25T05:42:12.477Z,57.93
2019-02-25T05:44:40.719Z,57.93
2019-02-25T05:47:09.187Z,58.07
2019-02-25T05:49:37.428Z,58.07
2019-02-25T05:52:05.663Z,58.05
2019-02-25T05:54:34.127Z,57.85
2019-02-25T05:57:02.378Z,57.79
2019-02-25T05:59:30.617Z,57.34
2019-02-25T06:01:58.858Z,57.34
2019-02-25T06:04:27.087Z,57.45
2019-02-25T06:06:55.319Z,57.35
2019-02-25T06:09:23.785Z,57.07
2019-02-25T06:11:52.242Z,56.55
2019-02-25T06:14:20.480Z,56.41
2019-02-25T06:16:48.707Z,56.23
2019-02-25T06:19:16.943Z,55.78
2019-02-25T06:21:45.173Z,55.78
2019-02-25T06:24:13.422Z,56.13
2019-02-25T06:26:41.658Z,56.32
2019-02-25T06:29:09.905Z,56.50
2019-02-25T06:31:38.140Z,56.80
2019-02-25T06:34:06.397Z,58.44
2019-02-25T06:36:34.630Z,57.13
2019-02-25T06:39:03.101Z,58.19
2019-02-25T06:41:31.567Z,57.62
2019-02-25T06:44:00.026Z,57.59
2019-02-25T06:46:28.265Z,57.48
2019-02-25T06:48:56.498Z,57.66
2019-02-25T06:51:24.735Z,58.74
2019-02-25T06:53:52.982Z,59.33
2019-02-25T06:56:21.450Z,59.66
2019-02-25T06:58:49.689Z,58.64
2019-02-25T07:01:17.932Z,59.42
2019-02-25T07:03:47.809Z,58.84
2019-02-25T07:06:26.667Z,58.50
2019-02-25T07:09:02.172Z,58.56
2019-02-25T07:11:35.001Z,58.87
2019-02-25T07:14:10.658Z,58.13
2019-02-25T07:16:40.528Z,57.93
2019-02-25T07:19:19.749Z,57.31
2019-02-25T07:21:49.628Z,58.05
2019-02-25T07:24:22.208Z,57.02
2019-02-25T07:27:07.108Z,56.89
2019-02-25T07:29:49.486Z,57.71
2019-02-25T07:32:35.383Z,56.97
2019-02-25T07:35:25.819Z,56.97
2019-02-25T07:37:55.495Z,55.51
2019-02-25T07:40:43.501Z,55.51
2019-02-25T07:43:19.383Z,55.46
2019-02-25T07:45:49.264Z,55.18
2019-02-25T07:48:19.151Z,54.83
2019-02-25T07:50:49.027Z,54.45
2019-02-25T07:53:27.946Z,53.09
2019-02-25T07:56:06.616Z,53.09
2019-02-25T07:58:54.221Z,52.43
2019-02-25T08:01:29.603Z,52.43
2019-02-25T08:04:02.104Z,51.85
2019-02-25T08:06:31.977Z,51.85
2019-02-25T08:09:20.014Z,52.01
2019-02-25T08:11:52.574Z,52.26
2019-02-25T08:14:25.400Z,52.11
2019-02-25T08:16:58.212Z,52.30
2019-02-25T08:19:28.337Z,51.94
2019-02-25T08:22:16.296Z,51.43
2019-02-25T08:25:00.717Z,51.12
2019-02-25T08:27:30.600Z,51.12
2019-02-25T08:30:09.511Z,50.79
2019-02-25T08:32:45.131Z,50.06
2019-02-25T08:35:29.663Z,48.41
2019-02-25T08:38:00.067Z,48.41
2019-02-25T08:40:38.129Z,49.00
2019-02-25T08:43:11.401Z,49.00
2019-02-25T08:45:41.267Z,48.63
2019-02-25T08:48:11.361Z,48.18
2019-02-25T08:50:39.603Z,47.86
2019-02-25T08:53:07.834Z,48.28
2019-02-25T08:55:36.302Z,47.74
2019-02-25T08:58:04.532Z,48.16
2019-02-25T09:00:32.772Z,48.65
2019-02-25T09:03:01.008Z,48.07
2019-02-25T09:05:29.244Z,48.04
2019-02-25T09:07:57.705Z,47.12
2019-02-25T09:10:25.946Z,47.80
2019-02-25T09:12:54.176Z,46.64
2019-02-25T09:15:22.641Z,45.43
2019-02-25T09:17:50.079Z,46.27
2019-02-25T09:20:18.558Z,46.39
2019-02-25T09:22:47.020Z,45.48
2019-02-25T09:25:16.322Z,45.38
2019-02-25T09:27:44.784Z,41.21
2019-02-25T09:30:17.930Z,43.81
2019-02-25T09:32:46.303Z,43.87
2019-02-25T09:35:14.526Z,43.73
2019-02-25T09:37:43.004Z,42.52
2019-02-25T09:40:18.471Z,42.56
2019-02-25T09:42:46.709Z,42.41
2019-02-25T09:45:16.199Z,41.87
2019-02-25T09:47:44.658Z,41.14
2019-02-25T09:50:22.880Z,40.57
2019-02-25T09:52:51.113Z,40.76
2019-02-25T09:55:19.369Z,37.87
2019-02-25T09:57:47.610Z,38.20
2019-02-25T10:00:17.829Z,38.48
2019-02-25T10:02:46.292Z,38.24
2019-02-25T10:05:14.532Z,36.03
2019-02-25T10:07:42.837Z,36.68
2019-02-25T10:10:17.068Z,33.80
2019-02-25T10:12:45.308Z,33.00
2019-02-25T10:15:19.165Z,35.27
2019-02-25T10:17:47.646Z,32.91
2019-02-25T10:20:15.888Z,32.52
2019-02-25T10:22:44.134Z,33.00
2019-02-25T10:25:12.440Z,31.79
2019-02-25T10:27:40.685Z,33.12
2019-02-25T10:30:12.098Z,30.63
2019-02-25T10:32:40.572Z,31.80
2019-02-25T10:35:13.628Z,31.59
2019-02-25T10:37:43.732Z,31.55
2019-02-25T10:40:15.215Z,29.39
2019-02-25T10:42:43.437Z,29.93
2019-02-25T10:45:22.490Z,31.59
2019-02-25T10:47:51.642Z,31.19
2019-02-25T10:50:20.848Z,30.02
2019-02-25T10:52:49.664Z,30.84
2019-02-25T10:55:35.537Z,30.59
2019-02-25T10:58:04.250Z,32.12
2019-02-25T11:00:32.479Z,32.29
2019-02-25T11:03:00.727Z,32.16
2019-02-25T11:05:30.570Z,32.63
2019-02-25T11:07:59.899Z,30.91
2019-02-25T11:10:32.592Z,32.39
2019-02-25T11:13:02.108Z,32.64
2019-02-25T11:15:32.601Z,32.36
2019-02-25T11:18:00.850Z,31.79
2019-02-25T11:20:29.709Z,32.52
2019-02-25T11:22:59.060Z,31.59
2019-02-25T11:25:28.471Z,30.36
2019-02-25T11:27:57.518Z,31.16
2019-02-25T11:30:25.742Z,30.61
2019-02-25T11:32:56.183Z,30.85
2019-02-25T11:35:24.175Z,30.70
2019-02-25T11:37:54.726Z,30.95
2019-02-25T11:40:22.691Z,30.54
2019-02-25T11:42:51.172Z,30.78
2019-02-25T11:45:20.438Z,30.26
2019-02-25T11:47:48.682Z,31.30
2019-02-25T11:50:18.456Z,31.21
2019-02-25T11:52:46.990Z,30.36
2019-02-25T11:55:16.221Z,30.54
2019-02-25T11:57:44.536Z,31.22
2019-02-25T12:00:15.949Z,31.75
2019-02-25T12:02:44.187Z,31.67
2019-02-25T12:05:13.020Z,32.38
2019-02-25T12:07:41.270Z,31.77
2019-02-25T12:10:13.925Z,32.18
2019-02-25T12:12:42.159Z,31.79
2019-02-25T12:15:13.407Z,30.78
2019-02-25T12:17:41.874Z,30.91
2019-02-25T12:20:11.857Z,32.00
2019-02-25T12:22:40.120Z,31.58
2019-02-25T12:25:14.054Z,29.91
2019-02-25T12:27:42.530Z,31.42
2019-02-25T12:30:22.628Z,27.65
2019-02-25T12:32:50.870Z,27.57
2019-02-25T12:35:19.337Z,27.84
2019-02-25T12:37:47.572Z,28.09
2019-02-25T12:40:16.756Z,27.84
2019-02-25T12:42:45.022Z,27.72
2019-02-25T12:45:14.941Z,28.90
2019-02-25T12:47:43.460Z,29.47
2019-02-25T12:50:13.802Z,30.12
2019-02-25T12:52:43.556Z,30.61
2019-02-25T12:55:13.031Z,30.82
2019-02-25T12:57:41.507Z,31.66
2019-02-25T13:00:13.239Z,31.28
2019-02-25T13:02:41.485Z,31.20
2019-02-25T13:05:12.592Z,31.98
2019-02-25T13:07:41.030Z,31.67
2019-02-25T13:10:11.412Z,31.36
2019-02-25T13:12:39.654Z,31.87
2019-02-25T13:15:14.134Z,32.18
2019-02-25T13:17:42.613Z,31.86
2019-02-25T13:20:12.689Z,31.86
2019-02-25T13:22:40.931Z,32.41
2019-02-25T13:25:13.204Z,32.71
2019-02-25T13:27:41.895Z,32.72
2019-02-25T13:30:16.035Z,32.47
2019-02-25T13:32:44.282Z,32.72
2019-02-25T13:35:13.835Z,32.67
2019-02-25T13:37:42.146Z,32.97
2019-02-25T13:40:12.588Z,32.46
2019-02-25T13:42:40.934Z,32.76
2019-02-25T13:45:18.523Z,32.13
2019-02-25T13:47:46.770Z,32.27
2019-02-25T13:50:16.381Z,31.24
2019-02-25T13:52:48.584Z,31.90
2019-02-25T13:55:18.757Z,31.87
2019-02-25T13:57:46.996Z,31.35
2019-02-25T14:00:18.409Z,30.94
2019-02-25T14:02:46.940Z,31.68
2019-02-25T14:05:15.398Z,31.80
2019-02-25T14:07:43.954Z,31.72
2019-02-25T14:10:15.922Z,32.19
2019-02-25T14:12:44.160Z,32.19
2019-02-25T14:15:24.077Z,31.54
2019-02-25T14:17:52.626Z,32.37
2019-02-25T14:20:22.031Z,32.07
2019-02-25T14:22:50.489Z,32.04
2019-02-25T14:25:21.909Z,32.14
2019-02-25T14:27:50.374Z,31.99
2019-02-25T14:30:21.844Z,31.93
2019-02-25T14:32:52.917Z,32.13
2019-02-25T14:35:22.572Z,32.13
2019-02-25T14:37:50.843Z,30.53
2019-02-25T14:40:21.704Z,31.50
2019-02-25T14:42:51.987Z,30.97
2019-02-25T14:45:21.966Z,30.26
2019-02-25T14:47:55.467Z,29.49
2019-02-25T14:50:23.587Z,30.18
2019-02-25T14:52:52.214Z,30.48
2019-02-25T14:55:20.725Z,29.75
2019-02-25T14:57:48.965Z,29.12
2019-02-25T15:00:26.803Z,28.76
2019-02-25T15:02:55.357Z,29.71
2019-02-25T15:05:27.118Z,29.00
2019-02-25T15:07:55.871Z,29.72
2019-02-25T15:10:29.071Z,28.52
2019-02-25T15:12:58.503Z,29.57
2019-02-25T15:15:24.367Z,29.51
2019-02-25T15:17:52.841Z,29.03
2019-02-25T15:20:23.373Z,29.08
2019-02-25T15:22:52.518Z,29.33
2019-02-25T15:25:21.139Z,28.79
2019-02-25T15:27:49.373Z,28.09
2019-02-25T15:30:28.214Z,28.13
2019-02-25T15:32:58.897Z,28.15
2019-02-25T15:35:31.454Z,28.69
2019-02-25T15:37:57.913Z,29.16
2019-02-25T15:40:27.395Z,29.15
2019-02-25T15:43:10.350Z,27.71
2019-02-25T15:45:40.682Z,28.09
2019-02-25T15:48:13.079Z,28.03
2019-02-25T15:50:44.126Z,28.98
2019-02-25T15:53:12.411Z,29.02
2019-02-25T15:55:41.396Z,29.31
2019-02-25T15:58:09.969Z,28.62
2019-02-25T16:00:38.511Z,28.76
2019-02-25T16:03:09.128Z,28.50
2019-02-25T16:05:38.671Z,28.54
2019-02-25T16:08:07.036Z,28.74
2019-02-25T16:10:35.270Z,29.17
2019-02-25T16:13:05.999Z,29.32
2019-02-25T16:15:33.610Z,29.44
2019-02-25T16:18:02.536Z,28.96
2019-02-25T16:20:32.597Z,29.23
2019-02-25T16:23:02.829Z,29.58
2019-02-25T16:25:32.203Z,29.86
2019-02-25T16:28:00.916Z,30.17
2019-02-25T16:30:30.719Z,30.50
2019-02-25T16:33:04.682Z,30.75
2019-02-25T16:35:32.258Z,31.06
2019-02-25T16:38:02.433Z,31.42
2019-02-25T16:40:32.923Z,31.70
2019-02-25T16:43:02.776Z,32.05
2019-02-25T16:45:35.037Z,32.27
2019-02-25T16:48:01.350Z,32.52
2019-02-25T16:50:30.384Z,32.74
2019-02-25T16:53:03.567Z,32.99
2019-02-25T16:55:28.850Z,33.37
2019-02-25T16:57:58.942Z,34.16
2019-02-25T17:00:29.980Z,34.79
2019-02-25T17:03:01.388Z,35.64
2019-02-25T17:05:28.552Z,35.99
2019-02-25T17:07:57.290Z,36.20
2019-02-25T17:10:27.107Z,36.65
2019-02-25T17:12:56.225Z,37.61
2019-02-25T17:15:26.928Z,37.79
2019-02-25T17:17:58.327Z,37.91
2019-02-25T17:20:27.777Z,38.80
2019-02-25T17:22:55.330Z,39.29
2019-02-25T17:25:26.851Z,40.21
2019-02-25T17:27:53.538Z,40.44
2019-02-25T17:30:25.767Z,42.25
2019-02-25T17:32:54.298Z,40.14
2019-02-25T17:35:25.947Z,40.90
2019-02-25T17:37:55.537Z,41.52
2019-02-25T17:40:23.583Z,41.16
2019-02-25T17:42:53.920Z,42.01
2019-02-25T17:45:29.482Z,44.67
2019-02-25T17:47:58.430Z,43.79
2019-02-25T17:50:27.165Z,44.17
2019-02-25T17:52:55.398Z,44.62
2019-02-25T17:55:29.399Z,42.62
2019-02-25T17:58:00.714Z,43.23
2019-02-25T18:00:31.955Z,44.14
2019-02-25T18:03:03.182Z,44.02
2019-02-25T18:05:33.510Z,45.01
2019-02-25T18:08:02.993Z,45.49
2019-02-25T18:10:31.578Z,45.23
2019-02-25T18:13:01.275Z,45.87
2019-02-25T18:15:32.804Z,46.10
2019-02-25T18:18:01.142Z,46.73
2019-02-25T18:20:29.551Z,47.10
2019-02-25T18:22:58.252Z,47.67
2019-02-25T18:25:26.492Z,48.31
2019-02-25T18:27:54.732Z,48.56
2019-02-25T18:30:32.764Z,49.46
2019-02-25T18:33:04.631Z,48.55
2019-02-25T18:35:31.566Z,48.52
2019-02-25T18:38:00.885Z,48.87
2019-02-25T18:40:29.958Z,49.14
2019-02-25T18:43:00.243Z,49.56
2019-02-25T18:45:28.331Z,50.03
2019-02-25T18:47:56.580Z,50.33
2019-02-25T18:50:26.968Z,50.39
2019-02-25T18:52:57.198Z,50.63
2019-02-25T18:55:29.150Z,51.41
2019-02-25T18:57:57.035Z,51.24
2019-02-25T19:00:34.958Z,51.20
2019-02-25T19:03:04.815Z,51.31
2019-02-25T19:05:34.365Z,51.28
2019-02-25T19:08:05.108Z,52.31
2019-02-25T19:10:33.600Z,50.88
2019-02-25T19:13:02.125Z,50.81
2019-02-25T19:15:30.655Z,51.09
2019-02-25T19:17:58.891Z,50.99
2019-02-25T19:20:27.487Z,51.18
2019-02-25T19:22:58.435Z,52.13
2019-02-25T19:25:25.944Z,52.71
2019-02-25T19:27:56.443Z,52.47
2019-02-25T19:30:25.403Z,52.80
2019-02-25T19:32:55.036Z,53.18
2019-02-25T19:35:25.763Z,52.65
2019-02-25T19:37:53.614Z,53.10
2019-02-25T19:40:24.550Z,52.69
2019-02-25T19:42:54.258Z,53.40
2019-02-25T19:45:22.904Z,54.10
2019-02-25T19:47:51.237Z,54.34
2019-02-25T19:50:21.164Z,54.39
2019-02-25T19:52:49.621Z,54.66
2019-02-25T19:55:20.507Z,55.01
2019-02-25T19:57:48.226Z,54.82
2019-02-25T20:00:25.765Z,54.76
2019-02-25T20:02:54.087Z,54.80
2019-02-25T20:05:24.146Z,55.01
2019-02-25T20:07:54.605Z,55.13
2019-02-25T20:10:22.354Z,55.13
2019-02-25T20:12:53.168Z,55.08
2019-02-25T20:15:25.377Z,55.08
2019-02-25T20:17:55.300Z,55.64
2019-02-25T20:20:25.200Z,55.02
2019-02-25T20:22:53.447Z,55.32
2019-02-25T20:25:24.520Z,55.14
2019-02-25T20:27:52.853Z,55.56
2019-02-25T20:30:23.695Z,55.66
2019-02-25T20:32:52.471Z,55.95
2019-02-25T20:35:22.225Z,56.19
2019-02-25T20:37:52.951Z,56.30
2019-02-25T20:40:21.833Z,56.44
2019-02-25T20:42:51.237Z,56.45
2019-02-25T20:45:30.457Z,56.52
2019-02-25T20:47:59.703Z,56.44
2019-02-25T20:50:28.586Z,56.30
2019-02-25T20:52:59.152Z,56.58
2019-02-25T20:55:27.569Z,56.95
2019-02-25T20:57:56.720Z,57.27
2019-02-25T21:00:25.945Z,58.07
2019-02-25T21:02:54.188Z,57.05
2019-02-25T21:05:24.675Z,57.24
2019-02-25T21:07:53.439Z,57.20
2019-02-25T21:10:24.827Z,57.63
2019-02-25T21:12:54.586Z,57.22
2019-02-25T21:15:22.884Z,57.13
2019-02-25T21:17:52.020Z,57.39
2019-02-25T21:20:21.505Z,57.37
2019-02-25T21:22:52.938Z,57.43
2019-02-25T21:25:24.414Z,58.07
2019-02-25T21:27:51.039Z,57.50
2019-02-25T21:30:22.681Z,57.75
2019-02-25T21:32:51.966Z,58.03
2019-02-25T21:35:23.457Z,58.08
2019-02-25T21:37:52.847Z,57.95
2019-02-25T21:40:25.072Z,58.07
2019-02-25T21:42:54.423Z,57.83
2019-02-25T21:45:25.172Z,58.57
2019-02-25T21:47:56.033Z,59.33
2019-02-25T21:50:26.269Z,59.64
2019-02-25T21:52:53.395Z,59.83
2019-02-25T21:55:23.748Z,59.61
2019-02-25T21:57:54.349Z,59.55
2019-02-25T22:00:23.197Z,59.55
2019-02-25T22:02:52.676Z,59.15
2019-02-25T22:05:23.581Z,59.54
2019-02-25T22:07:54.336Z,60.44
2019-02-25T22:10:21.214Z,59.98
2019-02-25T22:12:49.449Z,60.71
2019-02-25T22:15:19.694Z,61.20
2019-02-25T22:17:50.632Z,59.79
2019-02-25T22:20:21.345Z,60.33
2019-02-25T22:22:49.488Z,60.25
2019-02-25T22:25:22.151Z,60.33
2019-02-25T22:27:50.379Z,61.12
2019-02-25T22:30:18.922Z,60.42
2019-02-25T22:32:47.157Z,61.72
2019-02-25T22:35:15.621Z,61.71
2019-02-25T22:37:46.796Z,62.50
2019-02-25T22:40:17.544Z,60.80
2019-02-25T22:42:47.929Z,61.03
2019-02-25T22:45:22.650Z,61.52
2019-02-25T22:47:50.957Z,61.69
2019-02-25T22:50:19.427Z,61.73
2019-02-25T22:52:52.236Z,61.56
2019-02-25T22:55:20.192Z,61.50
2019-02-25T22:57:50.936Z,61.69
2019-02-25T23:00:42.332Z,61.46
2019-02-25T23:03:11.388Z,61.66
2019-02-25T23:05:42.970Z,61.98
2019-02-25T23:08:13.113Z,61.49
2019-02-25T23:10:42.544Z,61.64
2019-02-25T23:13:10.973Z,62.29
2019-02-25T23:15:39.208Z,62.98
2019-02-25T23:18:10.039Z,62.78
2019-02-25T23:20:37.403Z,63.00
2019-02-25T23:23:06.664Z,63.41
2019-02-25T23:25:34.947Z,63.59
2019-02-25T23:28:03.184Z,63.93
2019-02-25T23:30:31.410Z,63.44
2019-02-25T23:32:59.647Z,65.00
2019-02-25T23:35:27.881Z,65.53
2019-02-25T23:37:56.770Z,63.50
2019-02-25T23:40:26.066Z,65.71
2019-02-25T23:42:54.303Z,64.59
2019-02-25T23:45:23.258Z,65.37
2019-02-25T23:47:55.250Z,65.01
2019-02-25T23:50:21.622Z,64.94
2019-02-25T23:52:49.866Z,64.04
2019-02-25T23:55:19.651Z,63.79
2019-02-25T23:57:48.276Z,64.07
